createdAt,value
2019-01-21T00:01:48.049Z,75.19
2019-01-21T00:04:36.996Z,74.78
2019-01-21T00:07:25.887Z,75.65
2019-01-21T00:10:14.768Z,75.28
2019-01-21T00:19:13.276Z,74.30
2019-01-21T00:24:56.480Z,74.33
2019-01-21T00:27:45.328Z,74.67
2019-01-21T00:30:26.904Z,75.02
2019-01-21T00:33:15.713Z,74.76
2019-01-21T00:36:04.580Z,74.54
2019-01-21T00:38:53.403Z,74.24
2019-01-21T00:41:42.201Z,73.99
2019-01-21T00:44:24.251Z,74.07
2019-01-21T00:47:13.047Z,73.82
2019-01-21T00:50:01.861Z,74.07
2019-01-21T00:52:50.727Z,74.87
2019-01-21T00:55:39.609Z,74.85
2019-01-21T00:58:28.420Z,74.70
2019-01-21T01:01:17.295Z,74.68
2019-01-21T01:04:06.670Z,75.00
2019-01-21T01:06:55.553Z,76.26
2019-01-21T01:09:44.399Z,76.11
2019-01-21T01:12:33.248Z,75.90
2019-01-21T01:15:22.103Z,75.57
2019-01-21T01:18:11.067Z,75.13
2019-01-21T01:20:59.933Z,74.74
2019-01-21T01:23:48.873Z,74.87
2019-01-21T01:26:38.161Z,75.17
2019-01-21T01:29:46.038Z,75.48
2019-01-21T01:32:27.648Z,75.56
2019-01-21T01:38:31.280Z,74.89
2019-01-21T01:41:20.131Z,74.40
2019-01-21T01:47:16.756Z,73.99
2019-01-21T01:50:26.539Z,73.80
2019-01-21T01:56:23.234Z,73.83
2019-01-21T01:59:12.119Z,73.78
2019-01-21T02:02:00.984Z,73.54
2019-01-21T02:04:49.884Z,74.28
2019-01-21T02:07:38.698Z,74.40
2019-01-21T02:10:27.778Z,74.53
2019-01-21T02:13:16.609Z,74.06
2019-01-21T02:16:05.492Z,74.33
2019-01-21T02:18:54.291Z,74.22
2019-01-21T02:24:58.969Z,74.95
2019-01-21T02:28:28.196Z,75.97
2019-01-21T02:31:40.931Z,76.14
2019-01-21T02:34:48.978Z,75.38
2019-01-21T02:38:16.486Z,74.65
2019-01-21T02:41:26.237Z,74.56
2019-01-21T02:44:53.746Z,73.66
2019-01-21T02:48:03.460Z,73.44
2019-01-21T02:51:30.960Z,73.81
2019-01-21T02:54:58.464Z,73.41
2019-01-21T02:58:25.946Z,74.12
2019-01-21T03:01:35.666Z,74.43
2019-01-21T03:05:03.176Z,74.13
2019-01-21T03:08:12.929Z,73.96
2019-01-21T03:11:22.650Z,73.63
2019-01-21T03:14:32.353Z,73.97
2019-01-21T03:17:42.128Z,74.31
2019-01-21T03:21:09.644Z,74.01
2019-01-21T03:24:37.136Z,73.72
2019-01-21T03:27:46.853Z,73.27
2019-01-21T03:34:13.056Z,73.58
2019-01-21T03:36:59.347Z,73.57
2019-01-21T03:40:26.954Z,73.70
2019-01-21T03:43:54.469Z,73.24
2019-01-21T03:46:37.841Z,72.71
2019-01-21T03:50:05.568Z,72.92
2019-01-21T03:53:15.337Z,74.46
2019-01-21T03:56:25.261Z,74.66
2019-01-21T03:59:35.011Z,74.22
2019-01-21T04:02:44.805Z,73.69
2019-01-21T04:05:54.604Z,74.28
2019-01-21T04:09:22.176Z,74.96
2019-01-21T04:12:31.973Z,74.34
2019-01-21T04:15:41.834Z,75.26
2019-01-21T04:18:51.574Z,75.59
2019-01-21T04:22:19.125Z,74.74
2019-01-21T04:25:28.835Z,73.87
2019-01-21T04:28:56.323Z,73.71
2019-01-21T04:32:06.052Z,73.69
2019-01-21T04:35:15.752Z,74.27
2019-01-21T04:38:43.260Z,74.32
2019-01-21T04:41:53.158Z,74.14
2019-01-21T04:45:20.641Z,74.12
2019-01-21T04:48:03.841Z,73.97
2019-01-21T04:51:13.548Z,73.46
2019-01-21T04:54:25.037Z,73.63
2019-01-21T04:57:52.524Z,73.37
2019-01-21T05:01:02.302Z,73.17
2019-01-21T05:04:29.805Z,72.95
2019-01-21T05:07:57.297Z,72.42
2019-01-21T05:11:07.065Z,72.49
2019-01-21T05:14:34.537Z,72.88
2019-01-21T05:17:44.260Z,73.53
2019-01-21T05:21:11.760Z,73.72
2019-01-21T05:24:21.514Z,73.01
2019-01-21T05:27:49.029Z,73.09
2019-01-21T05:31:16.569Z,73.10
2019-01-21T05:34:26.335Z,73.84
2019-01-21T05:37:36.105Z,73.75
2019-01-21T05:40:45.852Z,73.39
2019-01-21T05:43:55.625Z,73.32
2019-01-21T05:47:23.130Z,73.31
2019-01-21T05:50:32.853Z,73.51
2019-01-21T05:54:00.601Z,73.59
2019-01-21T05:57:10.328Z,73.62
2019-01-21T06:00:37.841Z,73.65
2019-01-21T06:04:05.578Z,73.50
2019-01-21T06:07:33.092Z,73.60
2019-01-21T06:10:42.819Z,73.74
2019-01-21T06:13:52.615Z,73.30
2019-01-21T06:17:02.323Z,73.67
2019-01-21T06:20:29.837Z,73.81
2019-01-21T06:23:57.327Z,73.87
2019-01-21T06:27:24.837Z,73.56
2019-01-21T06:30:34.588Z,73.09
2019-01-21T06:34:02.099Z,72.70
2019-01-21T06:36:47.755Z,72.18
2019-01-21T06:39:57.510Z,72.12
2019-01-21T06:43:25.024Z,71.78
2019-01-21T06:46:52.776Z,71.97
2019-01-21T06:50:20.262Z,72.36
2019-01-21T06:53:47.752Z,73.87
2019-01-21T06:57:15.261Z,74.09
2019-01-21T07:00:42.779Z,74.24
2019-01-21T07:03:52.653Z,74.52
2019-01-21T07:07:20.134Z,74.03
2019-01-21T07:10:47.629Z,74.00
2019-01-21T07:14:15.144Z,73.57
2019-01-21T07:20:55.160Z,73.23
2019-01-21T07:24:04.971Z,73.29
2019-01-21T07:27:14.682Z,72.61
2019-01-21T07:30:42.169Z,72.06
2019-01-21T07:33:51.907Z,72.31
2019-01-21T07:36:37.836Z,72.31
2019-01-21T07:40:05.347Z,72.55
2019-01-21T07:43:15.111Z,72.69
2019-01-21T07:46:24.842Z,72.90
2019-01-21T07:49:52.330Z,72.91
2019-01-21T07:53:19.843Z,73.54
2019-01-21T07:56:29.562Z,73.20
2019-01-21T07:59:57.087Z,73.01
2019-01-21T08:03:06.908Z,72.74
2019-01-21T08:06:16.617Z,72.76
2019-01-21T08:09:26.381Z,72.53
2019-01-21T08:12:53.892Z,71.92
2019-01-21T08:16:21.380Z,72.94
2019-01-21T08:19:48.886Z,73.22
2019-01-21T08:23:16.379Z,73.35
2019-01-21T08:26:26.147Z,73.65
2019-01-21T08:29:53.638Z,73.57
2019-01-21T08:33:21.145Z,73.12
2019-01-21T08:39:23.149Z,73.21
2019-01-21T08:42:51.002Z,72.95
2019-01-21T08:46:21.476Z,73.04
2019-01-21T08:49:30.765Z,72.75
2019-01-21T08:52:59.170Z,72.23
2019-01-21T08:56:09.038Z,72.14
2019-01-21T08:59:18.709Z,72.66
2019-01-21T09:02:28.427Z,72.48
2019-01-21T09:05:55.931Z,72.30
2019-01-21T09:09:05.634Z,72.23
2019-01-21T09:12:15.349Z,72.33
2019-01-21T09:15:42.858Z,72.43
2019-01-21T09:19:10.366Z,72.06
2019-01-21T09:22:20.126Z,72.40
2019-01-21T09:25:29.843Z,72.34
2019-01-21T09:28:39.593Z,72.68
2019-01-21T09:31:49.329Z,72.77
2019-01-21T09:35:16.814Z,72.09
2019-01-21T09:38:25.481Z,72.47
2019-01-21T09:41:35.193Z,72.29
2019-01-21T09:44:45.267Z,71.56
2019-01-21T09:47:33.025Z,71.65
2019-01-21T09:50:21.831Z,71.71
2019-01-21T09:53:10.699Z,72.01
2019-01-21T09:55:59.529Z,71.52
2019-01-21T10:02:38.215Z,72.52
2019-01-21T10:05:47.942Z,72.14
2019-01-21T10:09:15.451Z,71.19
2019-01-21T10:12:42.940Z,72.34
2019-01-21T10:15:52.710Z,72.76
2019-01-21T10:19:20.212Z,72.00
2019-01-21T10:22:29.932Z,71.59
2019-01-21T10:25:57.417Z,71.00
2019-01-21T10:29:24.931Z,70.73
2019-01-21T10:32:52.450Z,70.36
2019-01-21T10:36:02.148Z,70.28
2019-01-21T10:39:04.015Z,71.02
2019-01-21T10:42:31.505Z,70.56
2019-01-21T10:45:59.062Z,70.79
2019-01-21T10:49:08.768Z,71.01
2019-01-21T10:52:36.273Z,71.28
2019-01-21T10:56:03.780Z,70.15
2019-01-21T10:59:13.848Z,70.16
2019-01-21T11:02:23.548Z,69.49
2019-01-21T11:05:33.287Z,69.39
2019-01-21T11:09:00.781Z,70.32
2019-01-21T11:12:10.508Z,70.27
2019-01-21T11:15:20.235Z,69.87
2019-01-21T11:18:47.742Z,70.25
2019-01-21T11:21:57.447Z,70.01
2019-01-21T11:25:07.175Z,69.11
2019-01-21T11:28:34.665Z,69.01
2019-01-21T11:32:02.184Z,68.34
2019-01-21T11:35:11.911Z,67.99
2019-01-21T11:38:21.901Z,66.81
2019-01-21T11:41:04.969Z,66.97
2019-01-21T11:44:32.478Z,65.41
2019-01-21T11:47:42.176Z,65.20
2019-01-21T11:51:09.750Z,65.36
2019-01-21T11:54:37.311Z,64.38
2019-01-21T11:58:04.811Z,64.19
2019-01-21T12:01:32.294Z,65.10
2019-01-21T12:04:42.051Z,63.85
2019-01-21T12:07:51.804Z,63.71
2019-01-21T12:11:19.296Z,62.86
2019-01-21T12:14:46.809Z,62.00
2019-01-21T12:18:14.311Z,61.66
2019-01-21T12:21:41.793Z,61.13
2019-01-21T12:24:30.667Z,60.00
2019-01-21T12:27:40.389Z,59.50
2019-01-21T12:30:50.137Z,59.42
2019-01-21T12:34:17.641Z,58.53
2019-01-21T12:37:45.136Z,57.85
2019-01-21T12:40:46.642Z,56.69
2019-01-21T12:44:14.187Z,54.84
2019-01-21T12:47:23.883Z,54.74
2019-01-21T12:50:51.381Z,53.40
2019-01-21T12:54:01.081Z,53.71
2019-01-21T12:57:28.580Z,52.84
2019-01-21T13:00:56.061Z,52.14
2019-01-21T13:04:23.585Z,52.15
2019-01-21T13:07:33.300Z,51.91
2019-01-21T13:10:43.013Z,51.19
2019-01-21T13:13:52.712Z,51.70
2019-01-21T13:17:20.208Z,51.31
2019-01-21T13:20:30.709Z,51.81
2019-01-21T13:23:41.353Z,51.41
2019-01-21T13:26:51.073Z,51.26
2019-01-21T13:30:02.381Z,51.21
2019-01-21T13:33:12.221Z,52.36
2019-01-21T13:36:21.989Z,52.84
2019-01-21T13:39:31.689Z,52.83
2019-01-21T13:42:14.919Z,52.41
2019-01-21T13:45:42.391Z,52.43
2019-01-21T13:48:52.109Z,52.00
2019-01-21T13:52:01.805Z,52.41
2019-01-21T13:55:11.531Z,52.23
2019-01-21T13:58:21.315Z,51.47
2019-01-21T14:01:48.793Z,51.74
2019-01-21T14:05:16.291Z,50.93
2019-01-21T14:08:43.795Z,49.95
2019-01-21T14:12:11.292Z,49.44
2019-01-21T14:15:38.775Z,50.85
2019-01-21T14:19:06.581Z,51.21
2019-01-21T14:22:34.064Z,49.69
2019-01-21T14:26:01.557Z,49.92
2019-01-21T14:29:03.055Z,49.26
2019-01-21T14:32:12.754Z,48.53
2019-01-21T14:35:40.256Z,48.15
2019-01-21T14:38:49.999Z,49.63
2019-01-21T14:41:57.943Z,50.39
2019-01-21T14:45:25.445Z,50.61
2019-01-21T14:48:53.192Z,51.17
2019-01-21T14:52:02.893Z,51.38
2019-01-21T14:55:30.415Z,51.94
2019-01-21T14:58:57.911Z,51.61
2019-01-21T15:02:25.404Z,52.96
2019-01-21T15:05:35.086Z,51.92
2019-01-21T15:08:44.857Z,51.73
2019-01-21T15:12:12.376Z,50.73
2019-01-21T15:15:39.931Z,50.00
2019-01-21T15:18:49.692Z,51.91
2019-01-21T15:22:17.240Z,52.76
2019-01-21T15:25:26.973Z,54.97
2019-01-21T15:28:28.115Z,54.59
2019-01-21T15:31:37.897Z,55.81
2019-01-21T15:34:47.912Z,56.59
2019-01-21T15:38:15.854Z,57.35
2019-01-21T15:41:43.460Z,57.82
2019-01-21T15:45:10.987Z,58.49
2019-01-21T15:48:38.500Z,59.37
2019-01-21T15:51:48.199Z,60.08
2019-01-21T15:54:57.931Z,60.82
2019-01-21T15:58:25.413Z,61.70
2019-01-21T16:01:52.911Z,62.14
2019-01-21T16:05:02.616Z,62.56
2019-01-21T16:08:12.324Z,63.19
2019-01-21T16:11:39.830Z,63.36
2019-01-21T16:14:49.550Z,64.04
2019-01-21T16:18:17.034Z,64.48
2019-01-21T16:21:27.097Z,64.85
2019-01-21T16:24:54.565Z,65.05
2019-01-21T16:28:04.301Z,65.12
2019-01-21T16:30:47.191Z,65.33
2019-01-21T16:33:56.949Z,65.75
2019-01-21T16:37:06.727Z,66.26
2019-01-21T16:40:16.431Z,67.11
2019-01-21T16:43:05.313Z,67.34
2019-01-21T16:45:54.119Z,67.41
2019-01-21T16:48:42.931Z,67.69
2019-01-21T16:51:31.737Z,68.04
2019-01-21T16:54:20.555Z,68.30
2019-01-21T17:00:17.192Z,69.07
2019-01-21T17:03:06.010Z,69.97
2019-01-21T17:05:54.832Z,70.91
2019-01-21T17:08:43.639Z,71.36
2019-01-21T17:11:32.455Z,72.03
2019-01-21T17:14:21.269Z,72.72
2019-01-21T17:20:00.608Z,74.21
2019-01-21T17:22:49.401Z,73.39
2019-01-21T17:25:38.220Z,72.85
2019-01-21T17:28:27.085Z,72.26
2019-01-21T17:31:15.899Z,72.43
2019-01-21T17:34:04.765Z,72.23
2019-01-21T17:36:53.619Z,71.81
2019-01-21T17:39:42.420Z,71.77
2019-01-21T17:42:31.242Z,72.46
2019-01-21T17:48:29.521Z,72.94
2019-01-21T17:51:18.386Z,72.92
2019-01-21T17:57:02.019Z,73.04
2019-01-21T17:59:50.837Z,73.49
2019-01-21T18:02:39.656Z,73.01
2019-01-21T18:08:36.223Z,72.63
2019-01-21T18:11:25.022Z,72.91
2019-01-21T18:14:13.834Z,73.32
2019-01-21T18:17:02.629Z,73.54
2019-01-21T18:19:51.449Z,73.53
2019-01-21T18:22:40.501Z,74.18
2019-01-21T18:25:29.605Z,74.81
2019-01-21T18:28:18.406Z,75.11
2019-01-21T18:31:00.237Z,74.77
2019-01-21T18:33:49.072Z,74.42
2019-01-21T18:36:57.274Z,74.58
2019-01-21T18:39:46.513Z,74.42
2019-01-21T18:45:30.289Z,74.35
2019-01-21T18:51:26.935Z,74.40
2019-01-21T18:54:15.902Z,76.87
2019-01-21T18:57:04.845Z,77.90
2019-01-21T18:59:53.741Z,77.29
2019-01-21T19:02:43.406Z,76.44
2019-01-21T19:05:33.368Z,75.86
2019-01-21T19:08:41.394Z,75.29
2019-01-21T19:11:30.445Z,74.84
2019-01-21T19:14:19.370Z,75.02
2019-01-21T19:17:08.679Z,75.35
2019-01-21T19:19:57.487Z,76.02
2019-01-21T19:22:46.502Z,75.96
2019-01-21T19:25:35.699Z,77.18
2019-01-21T19:28:44.043Z,77.67
2019-01-21T19:31:26.656Z,77.52
2019-01-21T19:44:35.239Z,75.29
2019-01-21T19:51:01.268Z,76.54
2019-01-21T20:03:59.940Z,74.67
2019-01-21T20:06:57.354Z,74.42
2019-01-21T20:09:31.359Z,74.54
2019-01-21T20:12:53.682Z,75.29
2019-01-21T20:29:07.083Z,74.80
2019-01-21T20:31:37.247Z,74.54
2019-01-21T20:35:01.275Z,74.42
2019-01-21T20:41:40.183Z,74.46
2019-01-21T20:51:20.058Z,73.99
2019-01-21T20:54:44.683Z,74.35
2019-01-21T21:04:27.059Z,74.03
2019-01-21T21:11:05.564Z,74.06
2019-01-21T21:14:16.185Z,74.40
2019-01-21T21:20:22.072Z,74.10
2019-01-21T21:26:18.799Z,74.18
2019-01-21T21:29:07.636Z,74.18
2019-01-21T21:31:49.443Z,74.50
2019-01-21T21:34:57.384Z,74.61
2019-01-21T21:37:46.207Z,74.92
2019-01-21T21:40:35.010Z,74.24
2019-01-21T21:43:30.699Z,74.04
2019-01-21T21:46:19.500Z,73.81
2019-01-21T21:49:08.334Z,73.52
2019-01-21T21:52:16.768Z,73.51
2019-01-21T21:55:26.491Z,73.98
2019-01-21T21:58:15.302Z,73.93
2019-01-21T22:04:18.869Z,74.48
2019-01-21T22:07:08.557Z,74.78
2019-01-21T22:09:57.357Z,74.29
2019-01-21T22:12:46.175Z,74.65
2019-01-21T22:15:53.994Z,74.47
2019-01-21T22:18:42.817Z,74.27
2019-01-21T22:21:31.608Z,74.16
2019-01-21T22:24:39.468Z,74.53
2019-01-21T22:27:28.268Z,75.30
2019-01-21T22:30:38.004Z,74.97
2019-01-21T22:33:26.844Z,74.61
2019-01-21T22:36:15.677Z,74.15
2019-01-21T22:39:25.400Z,74.30
2019-01-21T22:42:14.221Z,73.98
2019-01-21T22:45:22.159Z,73.61
2019-01-21T22:48:10.975Z,73.71
2019-01-21T22:50:59.806Z,73.84
2019-01-21T22:53:48.591Z,74.35
2019-01-21T22:56:37.399Z,74.46
2019-01-21T22:59:26.193Z,74.96
2019-01-21T23:02:15.018Z,74.70
2019-01-21T23:05:24.739Z,74.41
2019-01-21T23:08:13.531Z,73.81
2019-01-21T23:11:02.351Z,73.61
2019-01-21T23:13:51.151Z,73.58
2019-01-21T23:16:59.170Z,73.28
2019-01-21T23:19:47.989Z,73.33
2019-01-21T23:22:36.792Z,73.00
2019-01-21T23:25:25.606Z,72.84
2019-01-21T23:28:08.489Z,72.86
2019-01-21T23:30:57.295Z,73.04
2019-01-21T23:33:46.096Z,73.12
2019-01-21T23:36:34.907Z,73.36
2019-01-21T23:39:25.422Z,73.56
2019-01-21T23:42:14.307Z,73.98
2019-01-21T23:45:25.731Z,74.00
2019-01-21T23:48:14.548Z,73.67
2019-01-21T23:54:11.112Z,74.04
2019-01-21T23:57:00.207Z,73.66
2019-01-21T23:59:50.742Z,73.53
